首页
METAR-TAF:

METAR-TAF

机场 :

Corsicana Municipal Airport (C. David Campbell Field)

Corsicana, 得克萨斯州, 美国

纬度: 32-01-52N, 经度: 096-23-56W, 海拔: 136米

当前天气观测

该预报发布于45分钟前的18:53 UTC
风速6节,风向东转东南
温度 31°C
湿度 59%
气压 1022 hPa
能見度: 16.1公里
散云层高于3200英尺
多云层高于6000英尺

METAR: KCRS 201853Z AUTO 11006KT 10SM SCT032 BKN060 31/22 A3017 RMK AO2 SLP209 T03110222

时间: 14:38 (19:38 UTC)


TAF: 丢失

超过4000个机场的气象观测和天气预报(METAR&TAF报告)。

可查询的气象台以黄色和红色小点在地图上表示。

将鼠标移到小点上方,可查看气象台名称。

然后点击查看天气观测和预报。

如需切换地图:点击带黑十字的绿色按钮放大地图;点击带横线的绿色按钮缩小地图;或者点击绿色箭头查看邻近地区的地图。


METAR-TAF: